createdAt,value
2019-03-17T00:02:21.771Z,3.47
2019-03-17T00:04:51.245Z,3.70
2019-03-17T00:07:20.313Z,3.37
2019-03-17T00:09:49.523Z,3.23
2019-03-17T00:12:18.720Z,4.67
2019-03-17T00:14:47.892Z,3.13
2019-03-17T00:17:17.128Z,3.80
2019-03-17T00:19:46.960Z,3.80
2019-03-17T00:22:16.027Z,3.23
2019-03-17T00:24:45.099Z,3.30
2019-03-17T00:27:15.011Z,3.70
2019-03-17T00:29:44.085Z,3.40
2019-03-17T00:32:13.354Z,4.13
2019-03-17T00:34:44.446Z,3.57
2019-03-17T00:37:13.349Z,3.50
2019-03-17T00:39:42.432Z,3.40
2019-03-17T00:42:11.604Z,3.20
2019-03-17T00:44:40.671Z,3.33
2019-03-17T00:47:10.871Z,3.37
2019-03-17T00:49:40.037Z,3.53
2019-03-17T00:52:09.370Z,3.27
2019-03-17T00:54:38.616Z,3.67
2019-03-17T00:57:07.791Z,3.40
2019-03-17T00:59:36.803Z,3.47
2019-03-17T01:02:05.970Z,3.33
2019-03-17T01:04:35.105Z,3.70
2019-03-17T01:07:04.383Z,3.60
2019-03-17T01:09:33.868Z,3.60
2019-03-17T01:12:03.194Z,3.57
2019-03-17T01:14:32.177Z,3.60
2019-03-17T01:17:04.383Z,3.43
2019-03-17T01:19:33.694Z,3.83
2019-03-17T01:22:02.826Z,3.70
2019-03-17T01:24:31.995Z,3.80
2019-03-17T01:27:01.123Z,3.30
2019-03-17T01:29:30.237Z,3.63
2019-03-17T01:31:59.412Z,3.70
2019-03-17T01:34:28.675Z,4.10
2019-03-17T01:36:57.781Z,4.00
2019-03-17T01:39:26.849Z,3.80
2019-03-17T01:41:55.890Z,3.30
2019-03-17T01:44:24.997Z,3.93
2019-03-17T01:46:54.138Z,3.67
2019-03-17T01:49:23.322Z,3.80
2019-03-17T01:51:52.421Z,3.30
2019-03-17T01:54:21.497Z,3.53
2019-03-17T01:56:50.743Z,3.30
2019-03-17T01:59:19.839Z,3.90
2019-03-17T02:01:48.890Z,3.07
2019-03-17T02:04:18.154Z,3.60
2019-03-17T02:06:47.240Z,3.50
2019-03-17T02:09:16.248Z,3.13
2019-03-17T02:11:45.368Z,3.30
2019-03-17T02:14:14.458Z,3.27
2019-03-17T02:16:43.567Z,3.33
2019-03-17T02:19:12.584Z,3.00
2019-03-17T02:21:41.750Z,3.10
2019-03-17T02:24:10.729Z,2.70
2019-03-17T02:26:39.761Z,2.90
2019-03-17T02:29:11.298Z,3.20
2019-03-17T02:31:40.273Z,2.87
2019-03-17T02:34:11.935Z,2.60
2019-03-17T02:36:40.069Z,3.13
2019-03-17T02:39:09.175Z,2.80
2019-03-17T02:41:39.256Z,3.00
2019-03-17T02:44:08.352Z,3.00
2019-03-17T02:46:37.321Z,2.60
2019-03-17T02:49:06.366Z,2.53
2019-03-17T02:51:35.437Z,2.57
2019-03-17T02:54:04.588Z,2.50
2019-03-17T02:56:33.704Z,2.27
2019-03-17T02:59:02.940Z,2.37
2019-03-17T03:01:32.053Z,2.40
2019-03-17T03:04:01.313Z,2.33
2019-03-17T03:06:30.469Z,2.47
2019-03-17T03:08:59.561Z,2.40
2019-03-17T03:11:28.748Z,2.47
2019-03-17T03:13:57.830Z,2.10
2019-03-17T03:16:26.927Z,2.50
2019-03-17T03:18:56.118Z,1.93
2019-03-17T03:21:25.234Z,2.10
2019-03-17T03:23:54.272Z,2.13
2019-03-17T03:26:24.173Z,2.27
2019-03-17T03:28:53.249Z,2.20
2019-03-17T03:31:22.323Z,2.40
2019-03-17T03:33:51.315Z,2.10
2019-03-17T03:36:20.309Z,2.43
2019-03-17T03:38:49.385Z,2.60
2019-03-17T03:41:18.495Z,2.33
2019-03-17T03:43:47.587Z,2.20
2019-03-17T03:46:16.771Z,2.20
2019-03-17T03:48:45.825Z,2.20
2019-03-17T03:51:14.925Z,2.60
2019-03-17T03:53:43.940Z,2.20
2019-03-17T03:56:13.233Z,2.30
2019-03-17T03:58:43.048Z,2.10
2019-03-17T04:01:13.359Z,2.23
2019-03-17T04:03:42.554Z,2.60
2019-03-17T04:06:26.244Z,2.20
2019-03-17T04:08:46.942Z,2.50
2019-03-17T04:11:16.090Z,2.33
2019-03-17T04:13:45.130Z,2.60
2019-03-17T04:16:14.282Z,2.33
2019-03-17T04:18:43.525Z,2.70
2019-03-17T04:21:12.517Z,2.50
2019-03-17T04:23:41.710Z,2.43
2019-03-17T04:26:10.806Z,2.70
2019-03-17T04:28:39.848Z,2.83
2019-03-17T04:31:08.926Z,2.80
2019-03-17T04:33:38.110Z,2.80
2019-03-17T04:36:07.123Z,2.80
2019-03-17T04:38:36.174Z,2.57
2019-03-17T04:41:05.300Z,2.67
2019-03-17T04:43:34.448Z,2.63
2019-03-17T04:46:03.519Z,2.63
2019-03-17T04:48:32.660Z,2.63
2019-03-17T04:51:01.785Z,2.80
2019-03-17T04:53:30.820Z,2.60
2019-03-17T04:55:59.881Z,2.70
2019-03-17T04:58:28.958Z,2.80
2019-03-17T05:00:58.163Z,2.40
2019-03-17T05:03:27.265Z,2.13
2019-03-17T05:05:56.285Z,2.10
2019-03-17T05:08:25.282Z,2.50
2019-03-17T05:10:54.469Z,2.20
2019-03-17T05:13:23.461Z,2.27
2019-03-17T05:15:52.540Z,2.43
2019-03-17T05:18:21.713Z,2.30
2019-03-17T05:20:50.757Z,2.30
2019-03-17T05:23:19.828Z,2.30
2019-03-17T05:25:48.871Z,2.40
2019-03-17T05:28:18.144Z,2.30
2019-03-17T05:30:47.192Z,2.30
2019-03-17T05:33:16.309Z,2.23
2019-03-17T05:35:45.388Z,2.40
2019-03-17T05:38:14.398Z,2.07
2019-03-17T05:40:43.404Z,2.40
2019-03-17T05:43:12.668Z,2.23
2019-03-17T05:45:41.813Z,2.10
2019-03-17T05:48:10.898Z,2.30
2019-03-17T05:50:40.000Z,1.90
2019-03-17T05:53:09.157Z,2.50
2019-03-17T05:55:38.238Z,2.10
2019-03-17T05:58:07.578Z,1.97
2019-03-17T06:00:36.666Z,2.33
2019-03-17T06:03:05.833Z,2.20
2019-03-17T06:05:34.903Z,2.20
2019-03-17T06:08:03.958Z,2.10
2019-03-17T06:10:34.489Z,2.30
2019-03-17T06:13:03.665Z,1.90
2019-03-17T06:15:32.812Z,1.97
2019-03-17T06:18:01.939Z,1.83
2019-03-17T06:20:31.122Z,2.00
2019-03-17T06:23:00.230Z,2.13
2019-03-17T06:25:29.299Z,1.73
2019-03-17T06:27:58.318Z,2.00
2019-03-17T06:30:27.459Z,2.00
2019-03-17T06:32:56.608Z,1.70
2019-03-17T06:35:25.876Z,1.90
2019-03-17T06:37:54.907Z,2.00
2019-03-17T06:40:23.915Z,2.13
2019-03-17T06:42:53.204Z,1.97
2019-03-17T06:45:22.329Z,2.00
2019-03-17T06:47:51.472Z,1.93
2019-03-17T06:50:20.584Z,1.93
2019-03-17T06:52:49.829Z,1.83
2019-03-17T06:55:19.171Z,1.93
2019-03-17T06:57:59.414Z,1.87
2019-03-17T07:00:28.534Z,1.90
2019-03-17T07:02:57.746Z,2.03
2019-03-17T07:05:26.895Z,1.70
2019-03-17T07:07:56.151Z,2.10
2019-03-17T07:10:25.358Z,1.87
2019-03-17T07:12:54.419Z,1.93
2019-03-17T07:15:23.600Z,1.93
2019-03-17T07:17:52.781Z,1.83
2019-03-17T07:20:21.879Z,1.67
2019-03-17T07:22:51.150Z,1.90
2019-03-17T07:25:20.269Z,2.03
2019-03-17T07:27:49.305Z,1.93
2019-03-17T07:30:18.771Z,1.77
2019-03-17T07:32:47.861Z,2.00
2019-03-17T07:35:16.926Z,1.87
2019-03-17T07:37:56.173Z,1.80
2019-03-17T07:40:16.895Z,2.00
2019-03-17T07:42:46.064Z,2.07
2019-03-17T07:45:15.305Z,2.07
2019-03-17T07:47:44.409Z,2.20
2019-03-17T07:50:13.676Z,2.07
2019-03-17T07:52:42.792Z,2.27
2019-03-17T07:55:13.926Z,1.90
2019-03-17T07:57:43.220Z,1.70
2019-03-17T08:00:12.526Z,2.00
2019-03-17T08:02:41.669Z,1.90
2019-03-17T08:05:10.901Z,2.20
2019-03-17T08:07:40.072Z,1.93
2019-03-17T08:10:10.847Z,2.20
2019-03-17T08:12:39.964Z,2.20
2019-03-17T08:15:10.145Z,1.70
2019-03-17T08:17:39.434Z,2.10
2019-03-17T08:20:09.404Z,2.00
2019-03-17T08:22:38.570Z,2.00
2019-03-17T08:25:07.894Z,2.00
2019-03-17T08:27:37.141Z,1.80
2019-03-17T08:30:07.460Z,2.10
2019-03-17T08:32:36.728Z,1.73
2019-03-17T08:35:06.544Z,2.10
2019-03-17T08:37:35.932Z,2.27
2019-03-17T08:40:06.573Z,2.40
2019-03-17T08:42:35.640Z,2.23
2019-03-17T08:45:05.283Z,2.20
2019-03-17T08:47:34.399Z,2.30
2019-03-17T08:50:04.685Z,2.40
2019-03-17T08:52:34.486Z,2.10
2019-03-17T08:55:04.229Z,2.50
2019-03-17T08:57:33.408Z,2.50
2019-03-17T09:00:02.775Z,2.23
2019-03-17T09:02:32.099Z,2.10
2019-03-17T09:05:01.353Z,2.40
2019-03-17T09:07:31.112Z,2.20
2019-03-17T09:10:00.394Z,2.23
2019-03-17T09:12:29.656Z,2.40
2019-03-17T09:14:59.020Z,2.67
2019-03-17T09:17:29.593Z,2.60
2019-03-17T09:19:58.880Z,2.40
2019-03-17T09:22:28.324Z,2.20
2019-03-17T09:24:57.652Z,1.93
2019-03-17T09:27:27.017Z,2.20
2019-03-17T09:29:56.257Z,2.27
2019-03-17T09:32:27.124Z,2.30
2019-03-17T09:34:56.469Z,2.60
2019-03-17T09:37:28.050Z,2.10
2019-03-17T09:39:57.221Z,2.43
2019-03-17T09:42:26.520Z,2.00
2019-03-17T09:44:57.765Z,2.40
2019-03-17T09:47:27.683Z,2.27
2019-03-17T09:49:57.074Z,2.40
2019-03-17T09:52:27.273Z,2.70
2019-03-17T09:54:57.355Z,2.43
2019-03-17T09:57:26.939Z,2.37
2019-03-17T09:59:56.212Z,2.40
2019-03-17T10:02:25.314Z,2.43
2019-03-17T10:04:54.417Z,2.10
2019-03-17T10:07:23.620Z,2.10
2019-03-17T10:09:52.832Z,2.10
2019-03-17T10:12:21.987Z,2.33
2019-03-17T10:14:51.263Z,2.20
2019-03-17T10:17:20.574Z,2.00
2019-03-17T10:19:49.767Z,2.17
2019-03-17T10:22:18.940Z,2.10
2019-03-17T10:24:48.220Z,2.20
2019-03-17T10:27:17.280Z,1.83
2019-03-17T10:29:46.541Z,2.30
2019-03-17T10:32:15.709Z,2.30
2019-03-17T10:34:44.751Z,2.43
2019-03-17T10:37:14.041Z,2.07
2019-03-17T10:39:43.175Z,2.23
2019-03-17T10:42:12.484Z,2.10
2019-03-17T10:44:43.571Z,2.20
2019-03-17T10:47:12.804Z,1.90
2019-03-17T10:49:41.801Z,2.50
2019-03-17T10:52:11.161Z,1.90
2019-03-17T10:54:40.742Z,2.87
2019-03-17T10:57:10.006Z,2.30
2019-03-17T10:59:39.314Z,2.67
2019-03-17T11:02:08.550Z,2.30
2019-03-17T11:04:37.718Z,2.17
2019-03-17T11:07:08.873Z,2.20
2019-03-17T11:09:38.618Z,2.50
2019-03-17T11:12:07.725Z,2.63
2019-03-17T11:14:37.041Z,2.30
2019-03-17T11:17:06.273Z,2.10
2019-03-17T11:19:35.547Z,2.63
2019-03-17T11:22:05.142Z,2.60
2019-03-17T11:24:34.377Z,2.83
2019-03-17T11:27:04.042Z,2.93
2019-03-17T11:29:33.422Z,2.40
2019-03-17T11:32:02.686Z,2.70
2019-03-17T11:34:32.299Z,2.30
2019-03-17T11:37:01.540Z,2.23
2019-03-17T11:39:37.630Z,2.00
2019-03-17T11:42:01.758Z,2.27
2019-03-17T11:44:30.896Z,2.23
2019-03-17T11:47:00.124Z,2.23
2019-03-17T11:49:31.114Z,2.30
2019-03-17T11:52:00.403Z,2.20
2019-03-17T11:54:29.828Z,2.27
2019-03-17T11:56:59.203Z,2.30
2019-03-17T11:59:28.934Z,2.20
2019-03-17T12:01:58.290Z,2.63
2019-03-17T12:04:27.701Z,2.90
2019-03-17T12:06:56.854Z,2.70
2019-03-17T12:09:29.335Z,3.17
2019-03-17T12:11:57.438Z,3.40
2019-03-17T12:14:28.957Z,2.80
2019-03-17T12:16:58.232Z,2.70
2019-03-17T12:19:32.719Z,2.70
2019-03-17T12:22:08.863Z,2.13
2019-03-17T12:24:35.383Z,2.40
2019-03-17T12:27:05.452Z,2.73
2019-03-17T12:29:36.164Z,2.10
2019-03-17T12:32:05.439Z,2.00
2019-03-17T12:34:34.526Z,2.20
2019-03-17T12:37:03.682Z,2.03
2019-03-17T12:39:32.830Z,2.10
2019-03-17T12:42:01.939Z,2.33
2019-03-17T12:44:31.245Z,2.30
2019-03-17T12:47:00.456Z,2.23
2019-03-17T12:49:29.807Z,2.03
2019-03-17T12:51:59.077Z,1.90
2019-03-17T12:54:28.653Z,2.47
2019-03-17T12:56:57.858Z,2.20
2019-03-17T12:59:27.041Z,2.07
2019-03-17T13:01:56.246Z,2.53
2019-03-17T13:04:25.548Z,2.83
2019-03-17T13:06:55.010Z,1.70
2019-03-17T13:09:25.628Z,0.90
2019-03-17T13:11:54.754Z,1.20
2019-03-17T13:14:23.882Z,1.20
2019-03-17T13:16:53.048Z,1.40
2019-03-17T13:19:22.410Z,0.87
2019-03-17T13:21:51.791Z,1.17
2019-03-17T13:24:21.221Z,0.90
2019-03-17T13:26:50.401Z,1.30
2019-03-17T13:29:19.608Z,0.90
2019-03-17T13:31:48.743Z,1.07
2019-03-17T13:34:17.882Z,1.30
2019-03-17T13:36:46.923Z,1.53
2019-03-17T13:39:16.092Z,0.90
2019-03-17T13:41:45.288Z,0.73
2019-03-17T13:44:14.497Z,1.73
2019-03-17T13:46:43.794Z,1.20
2019-03-17T13:49:13.021Z,1.00
2019-03-17T13:51:42.321Z,1.40
2019-03-17T13:54:11.470Z,1.43
2019-03-17T13:56:41.935Z,1.83
2019-03-17T13:59:11.146Z,1.40
2019-03-17T14:01:40.354Z,1.80
2019-03-17T14:04:09.636Z,1.70
2019-03-17T14:06:38.745Z,2.00
2019-03-17T14:09:08.857Z,1.50
2019-03-17T14:11:38.017Z,1.87
2019-03-17T14:14:07.332Z,1.70
2019-03-17T14:16:36.585Z,1.43
2019-03-17T14:19:06.313Z,1.57
2019-03-17T14:21:35.508Z,1.60
2019-03-17T14:24:04.693Z,1.70
2019-03-17T14:26:34.391Z,2.80
2019-03-17T14:29:03.664Z,2.60
2019-03-17T14:31:32.943Z,2.17
2019-03-17T14:34:02.130Z,2.27
2019-03-17T14:36:32.758Z,2.07
2019-03-17T14:39:01.776Z,2.27
2019-03-17T14:41:31.878Z,2.00
2019-03-17T14:44:00.990Z,2.17
2019-03-17T14:46:30.240Z,3.20
2019-03-17T14:48:59.414Z,2.80
2019-03-17T14:51:28.656Z,3.03
2019-03-17T14:53:57.963Z,4.43
2019-03-17T14:56:27.165Z,2.47
2019-03-17T14:58:56.801Z,2.40
2019-03-17T15:01:26.056Z,1.70
2019-03-17T15:03:55.733Z,2.10
2019-03-17T15:06:24.941Z,1.47
2019-03-17T15:08:55.801Z,1.60
2019-03-17T15:11:27.309Z,2.40
2019-03-17T15:13:56.041Z,1.77
2019-03-17T15:16:27.250Z,2.07
2019-03-17T15:18:56.306Z,2.37
2019-03-17T15:21:25.466Z,1.80
2019-03-17T15:23:54.614Z,1.97
2019-03-17T15:26:23.882Z,2.07
2019-03-17T15:28:53.162Z,2.10
2019-03-17T15:31:22.346Z,2.20
2019-03-17T15:33:51.756Z,2.97
2019-03-17T15:36:21.087Z,2.43
2019-03-17T15:38:50.306Z,2.73
2019-03-17T15:41:20.142Z,2.33
2019-03-17T15:43:49.412Z,2.30
2019-03-17T15:46:18.670Z,2.40
2019-03-17T15:48:47.927Z,2.90
2019-03-17T15:51:20.719Z,3.63
2019-03-17T15:53:48.727Z,2.90
2019-03-17T15:56:18.114Z,2.60
2019-03-17T15:58:47.314Z,2.80
2019-03-17T16:01:16.591Z,2.40
2019-03-17T16:03:45.839Z,2.60
2019-03-17T16:06:15.354Z,2.40
2019-03-17T16:08:44.726Z,2.50
2019-03-17T16:11:14.248Z,2.50
2019-03-17T16:13:43.460Z,2.33
2019-03-17T16:16:12.957Z,2.50
2019-03-17T16:18:42.504Z,2.53
2019-03-17T16:21:11.701Z,2.43
2019-03-17T16:23:40.979Z,2.20
2019-03-17T16:26:10.312Z,2.43
2019-03-17T16:28:41.189Z,2.60
2019-03-17T16:31:11.353Z,2.30
2019-03-17T16:33:40.933Z,2.93
2019-03-17T16:36:10.346Z,2.70
2019-03-17T16:38:39.802Z,2.90
2019-03-17T16:41:09.357Z,2.87
2019-03-17T16:43:38.765Z,2.70
2019-03-17T16:46:09.526Z,2.87
2019-03-17T16:48:38.935Z,3.57
2019-03-17T16:51:08.220Z,2.53
2019-03-17T16:53:38.023Z,2.63
2019-03-17T16:56:07.348Z,2.77
2019-03-17T16:58:36.701Z,3.77
2019-03-17T17:01:05.901Z,3.20
2019-03-17T17:03:35.190Z,3.00
2019-03-17T17:06:04.493Z,3.40
2019-03-17T17:08:33.595Z,3.00
2019-03-17T17:11:03.147Z,3.17
2019-03-17T17:13:32.207Z,3.17
2019-03-17T17:16:01.416Z,3.60
2019-03-17T17:18:32.350Z,3.20
2019-03-17T17:21:01.659Z,3.60
2019-03-17T17:23:30.846Z,2.47
2019-03-17T17:26:00.215Z,4.03
2019-03-17T17:28:29.328Z,3.60
2019-03-17T17:30:58.443Z,3.60
2019-03-17T17:33:32.601Z,2.00
2019-03-17T17:36:01.802Z,1.80
2019-03-17T17:38:31.089Z,1.50
2019-03-17T17:41:00.435Z,1.30
2019-03-17T17:43:29.857Z,1.07
2019-03-17T17:45:59.145Z,1.10
2019-03-17T17:48:28.421Z,1.70
2019-03-17T17:50:58.660Z,1.27
2019-03-17T17:53:27.777Z,1.63
2019-03-17T17:55:56.956Z,1.00
2019-03-17T17:58:26.249Z,1.07
2019-03-17T18:00:55.345Z,2.27
2019-03-17T18:03:24.577Z,1.50
2019-03-17T18:05:53.783Z,2.10
2019-03-17T18:08:23.148Z,2.10
2019-03-17T18:10:52.295Z,2.37
2019-03-17T18:13:21.354Z,2.20
2019-03-17T18:15:50.541Z,2.80
2019-03-17T18:18:19.583Z,1.80
2019-03-17T18:20:48.825Z,1.60
2019-03-17T18:23:18.630Z,1.73
2019-03-17T18:25:47.881Z,2.30
2019-03-17T18:28:18.538Z,1.47
2019-03-17T18:30:47.975Z,1.50
2019-03-17T18:33:17.166Z,1.90
2019-03-17T18:35:46.388Z,1.00
2019-03-17T18:38:15.764Z,1.50
2019-03-17T18:40:45.238Z,1.30
2019-03-17T18:43:14.441Z,1.50
2019-03-17T18:45:43.684Z,2.73
2019-03-17T18:48:12.984Z,1.90
2019-03-17T18:50:42.219Z,1.33
2019-03-17T18:53:11.720Z,1.60
2019-03-17T18:55:41.206Z,1.60
2019-03-17T18:58:13.345Z,1.03
2019-03-17T19:00:43.780Z,1.30
2019-03-17T19:03:15.082Z,1.43
2019-03-17T19:05:43.927Z,1.60
2019-03-17T19:08:14.826Z,1.43
2019-03-17T19:10:43.923Z,1.57
2019-03-17T19:13:13.137Z,1.57
2019-03-17T19:15:42.222Z,1.70
2019-03-17T19:18:11.494Z,1.60
2019-03-17T19:20:40.803Z,1.30
2019-03-17T19:23:10.293Z,1.70
2019-03-17T19:25:39.589Z,1.53
2019-03-17T19:28:08.727Z,1.63
2019-03-17T19:30:37.986Z,1.57
2019-03-17T19:33:07.269Z,1.50
2019-03-17T19:35:36.601Z,1.50
2019-03-17T19:38:05.869Z,1.40
2019-03-17T19:40:35.041Z,1.50
2019-03-17T19:43:04.306Z,1.70
2019-03-17T19:45:33.720Z,1.60
2019-03-17T19:48:03.392Z,1.60
2019-03-17T19:50:32.737Z,1.50
2019-03-17T19:53:03.540Z,1.50
2019-03-17T19:55:32.836Z,1.47
2019-03-17T19:58:02.160Z,1.80
2019-03-17T20:00:31.448Z,1.43
2019-03-17T20:03:00.779Z,1.63
2019-03-17T20:05:29.866Z,1.90
2019-03-17T20:07:58.984Z,1.40
2019-03-17T20:10:28.326Z,1.60
2019-03-17T20:13:10.390Z,1.50
2019-03-17T20:15:28.519Z,1.70
2019-03-17T20:17:58.033Z,2.00
2019-03-17T20:20:27.359Z,1.50
2019-03-17T20:22:56.560Z,1.80
2019-03-17T20:25:25.610Z,1.50
2019-03-17T20:27:55.056Z,2.30
2019-03-17T20:30:24.419Z,1.87
2019-03-17T20:32:53.708Z,1.70
2019-03-17T20:35:22.968Z,1.63
2019-03-17T20:37:52.407Z,1.70
2019-03-17T20:40:21.633Z,1.70
2019-03-17T20:42:50.863Z,1.40
2019-03-17T20:45:22.587Z,1.33
2019-03-17T20:47:52.142Z,1.40
2019-03-17T20:50:21.302Z,1.73
2019-03-17T20:52:50.361Z,1.60
2019-03-17T20:55:19.873Z,1.83
2019-03-17T20:57:49.253Z,1.53
2019-03-17T21:00:18.651Z,1.50
2019-03-17T21:02:47.969Z,1.70
2019-03-17T21:05:17.369Z,1.70
2019-03-17T21:07:46.933Z,1.50
2019-03-17T21:10:16.750Z,1.73
2019-03-17T21:12:49.011Z,1.97
2019-03-17T21:15:18.289Z,2.30
2019-03-17T21:17:47.709Z,1.80
2019-03-17T21:20:18.371Z,2.07
2019-03-17T21:22:49.487Z,2.07
2019-03-17T21:25:19.046Z,2.00
2019-03-17T21:27:48.535Z,2.00
2019-03-17T21:30:19.709Z,1.77
2019-03-17T21:32:49.172Z,2.17
2019-03-17T21:35:18.221Z,2.10
2019-03-17T21:37:51.344Z,1.63
2019-03-17T21:40:21.093Z,1.53
2019-03-17T21:42:50.549Z,1.70
2019-03-17T21:45:19.875Z,1.60
2019-03-17T21:47:49.198Z,1.83
2019-03-17T21:50:18.977Z,1.93
2019-03-17T21:52:48.569Z,2.27
2019-03-17T21:55:17.837Z,2.10
2019-03-17T21:57:47.651Z,2.10
2019-03-17T22:00:17.460Z,2.07
2019-03-17T22:02:46.906Z,2.13
2019-03-17T22:05:16.331Z,2.40
2019-03-17T22:07:50.007Z,2.20
2019-03-17T22:10:17.445Z,2.53
2019-03-17T22:12:49.094Z,2.03
2019-03-17T22:15:18.254Z,1.90
2019-03-17T22:17:47.476Z,1.70
2019-03-17T22:20:16.954Z,2.57
2019-03-17T22:22:46.158Z,1.97
2019-03-17T22:25:15.537Z,2.10
2019-03-17T22:27:44.767Z,1.70
2019-03-17T22:30:15.518Z,1.67
2019-03-17T22:32:44.925Z,1.70
2019-03-17T22:35:14.249Z,1.63
2019-03-17T22:37:43.475Z,1.97
2019-03-17T22:40:13.135Z,1.60
2019-03-17T22:42:42.287Z,2.00
2019-03-17T22:45:11.478Z,1.97
2019-03-17T22:47:40.846Z,1.67
2019-03-17T22:50:11.292Z,1.63
2019-03-17T22:52:40.402Z,1.97
2019-03-17T22:55:09.948Z,1.90
2019-03-17T22:57:39.345Z,2.27
2019-03-17T23:00:11.270Z,1.70
2019-03-17T23:02:40.290Z,2.50
2019-03-17T23:05:09.696Z,1.47
2019-03-17T23:07:38.976Z,1.77
2019-03-17T23:10:09.052Z,1.77
2019-03-17T23:12:38.074Z,1.80
2019-03-17T23:15:07.452Z,1.50
2019-03-17T23:17:37.873Z,2.00
2019-03-17T23:20:07.514Z,1.73
2019-03-17T23:22:36.663Z,1.70
2019-03-17T23:25:06.012Z,1.67
2019-03-17T23:27:35.154Z,1.93
2019-03-17T23:30:04.715Z,2.13
2019-03-17T23:32:37.481Z,1.93
2019-03-17T23:35:07.151Z,2.00
2019-03-17T23:37:36.326Z,2.17
2019-03-17T23:40:09.545Z,1.80
2019-03-17T23:42:37.716Z,1.87
2019-03-17T23:45:06.989Z,1.60
2019-03-17T23:47:36.119Z,1.77
2019-03-17T23:50:05.352Z,2.10
2019-03-17T23:52:35.037Z,1.90
2019-03-17T23:55:04.455Z,2.00
2019-03-17T23:57:33.634Z,1.87
